createdAt,value
2019-03-02T00:00:42.491Z,5.98
2019-03-02T00:01:42.477Z,5.87
2019-03-02T00:02:42.471Z,5.83
2019-03-02T00:03:42.429Z,5.88
2019-03-02T00:04:46.188Z,5.87
2019-03-02T00:05:42.402Z,5.81
2019-03-02T00:06:42.376Z,5.81
2019-03-02T00:07:43.823Z,5.81
2019-03-02T00:08:42.359Z,5.83
2019-03-02T00:09:42.323Z,5.83
2019-03-02T00:10:44.582Z,5.83
2019-03-02T00:11:42.309Z,5.84
2019-03-02T00:12:42.298Z,5.79
2019-03-02T00:13:43.455Z,5.80
2019-03-02T00:14:42.240Z,5.76
2019-03-02T00:15:42.208Z,5.74
2019-03-02T00:16:43.353Z,5.79
2019-03-02T00:17:42.169Z,5.80
2019-03-02T00:18:42.173Z,5.76
2019-03-02T00:19:42.614Z,5.76
2019-03-02T00:20:42.117Z,5.80
2019-03-02T00:21:42.107Z,5.79
2019-03-02T00:22:43.491Z,5.79
2019-03-02T00:23:42.075Z,5.77
2019-03-02T00:24:42.347Z,5.83
2019-03-02T00:25:42.035Z,5.77
2019-03-02T00:26:42.976Z,5.77
2019-03-02T00:27:41.996Z,5.79
2019-03-02T00:28:41.988Z,5.74
2019-03-02T00:29:50.270Z,5.80
2019-03-02T00:31:35.925Z,5.79
2019-03-02T00:32:35.841Z,5.80
2019-03-02T00:33:35.768Z,5.79
2019-03-02T00:34:35.792Z,5.80
2019-03-02T00:35:35.732Z,5.79
2019-03-02T00:36:35.727Z,5.72
2019-03-02T00:37:35.700Z,5.77
2019-03-02T00:38:35.683Z,5.76
2019-03-02T00:39:35.660Z,5.81
2019-03-02T00:40:35.650Z,5.83
2019-03-02T00:41:38.661Z,5.79
2019-03-02T00:42:35.602Z,5.80
2019-03-02T00:43:35.586Z,5.77
2019-03-02T00:44:35.718Z,5.79
2019-03-02T00:45:35.549Z,5.74
2019-03-02T00:46:35.525Z,5.80
2019-03-02T00:47:36.283Z,5.77
2019-03-02T00:48:35.498Z,5.76
2019-03-02T00:49:35.470Z,5.76
2019-03-02T00:50:36.565Z,5.77
2019-03-02T00:51:36.549Z,5.76
2019-03-02T00:52:35.418Z,5.80
2019-03-02T00:53:35.691Z,5.80
2019-03-02T00:54:35.381Z,5.74
2019-03-02T00:55:35.363Z,5.74
2019-03-02T00:56:35.357Z,5.79
2019-03-02T00:57:35.327Z,5.80
2019-03-02T00:58:35.305Z,5.84
2019-03-02T00:59:35.763Z,5.73
2019-03-02T01:00:35.269Z,5.76
2019-03-02T01:01:35.273Z,5.74
2019-03-02T01:02:36.780Z,5.79
2019-03-02T01:03:35.216Z,5.83
2019-03-02T01:04:35.195Z,5.80
2019-03-02T01:05:36.310Z,5.77
2019-03-02T01:06:35.158Z,5.74
2019-03-02T01:07:35.200Z,5.83
2019-03-02T01:08:35.711Z,5.84
2019-03-02T01:09:35.102Z,5.84
2019-03-02T01:10:35.083Z,5.77
2019-03-02T01:11:35.089Z,5.81
2019-03-02T01:12:35.046Z,5.80
2019-03-02T01:13:35.156Z,5.73
2019-03-02T01:14:35.009Z,5.77
2019-03-02T01:15:34.989Z,5.77
2019-03-02T01:16:34.979Z,5.77
2019-03-02T01:17:34.958Z,5.81
2019-03-02T01:18:34.952Z,5.73
2019-03-02T01:19:34.928Z,5.83
2019-03-02T01:20:34.909Z,5.77
2019-03-02T01:21:37.586Z,5.74
2019-03-02T01:22:34.859Z,5.84
2019-03-02T01:23:34.884Z,5.79
2019-03-02T01:24:35.568Z,5.77
2019-03-02T01:25:34.814Z,5.83
2019-03-02T01:26:34.805Z,5.81
2019-03-02T01:27:35.177Z,5.84
2019-03-02T01:28:34.745Z,5.74
2019-03-02T01:29:34.794Z,5.83
2019-03-02T01:30:34.712Z,5.76
2019-03-02T01:31:36.835Z,5.83
2019-03-02T01:32:34.706Z,5.83
2019-03-02T01:33:34.657Z,5.88
2019-03-02T01:34:34.671Z,5.83
2019-03-02T01:35:34.649Z,5.83
2019-03-02T01:36:34.647Z,5.84
2019-03-02T01:37:34.607Z,5.77
2019-03-02T01:38:34.583Z,5.88
2019-03-02T01:39:34.541Z,5.83
2019-03-02T01:40:37.901Z,5.83
2019-03-02T01:41:34.531Z,5.76
2019-03-02T01:42:34.487Z,5.83
2019-03-02T01:43:36.719Z,5.87
2019-03-02T01:44:34.447Z,5.88
2019-03-02T01:45:34.469Z,5.91
2019-03-02T01:46:37.581Z,5.83
2019-03-02T01:47:34.437Z,5.87
2019-03-02T01:48:34.379Z,5.87
2019-03-02T01:49:36.689Z,5.87
2019-03-02T01:50:34.340Z,5.87
2019-03-02T01:51:34.321Z,5.80
2019-03-02T01:52:35.250Z,5.87
2019-03-02T01:53:34.310Z,5.88
2019-03-02T01:54:34.286Z,5.91
2019-03-02T01:55:34.251Z,5.87
2019-03-02T01:56:34.229Z,5.88
2019-03-02T01:57:34.226Z,5.88
2019-03-02T01:58:34.187Z,5.88
2019-03-02T01:59:35.400Z,5.90
2019-03-02T02:00:34.154Z,5.87
2019-03-02T02:01:34.152Z,5.92
2019-03-02T02:02:36.107Z,5.84
2019-03-02T02:03:34.095Z,5.91
2019-03-02T02:04:34.096Z,5.83
2019-03-02T02:05:34.087Z,5.84
2019-03-02T02:06:34.043Z,5.90
2019-03-02T02:07:34.028Z,6.01
2019-03-02T02:08:34.026Z,5.91
2019-03-02T02:09:33.992Z,5.87
2019-03-02T02:10:33.980Z,5.98
2019-03-02T02:11:33.985Z,5.87
2019-03-02T02:12:33.929Z,5.88
2019-03-02T02:13:33.927Z,5.94
2019-03-02T02:14:33.901Z,5.95
2019-03-02T02:15:33.899Z,6.01
2019-03-02T02:16:33.868Z,5.92
2019-03-02T02:17:33.855Z,5.97
2019-03-02T02:18:33.835Z,6.01
2019-03-02T02:19:34.726Z,5.95
2019-03-02T02:20:33.781Z,5.99
2019-03-02T02:21:33.800Z,5.97
2019-03-02T02:22:34.675Z,5.97
2019-03-02T02:23:33.755Z,5.97
2019-03-02T02:24:33.709Z,5.91
2019-03-02T02:25:35.679Z,5.94
2019-03-02T02:26:33.669Z,6.01
2019-03-02T02:27:33.694Z,5.94
2019-03-02T02:28:33.662Z,6.01
2019-03-02T02:29:33.614Z,5.92
2019-03-02T02:30:33.600Z,5.99
2019-03-02T02:31:33.608Z,5.99
2019-03-02T02:32:33.588Z,5.97
2019-03-02T02:33:42.257Z,5.94
2019-03-02T02:34:33.581Z,5.94
2019-03-02T02:35:39.478Z,5.94
2019-03-02T02:36:33.487Z,6.01
2019-03-02T02:37:37.044Z,5.95
2019-03-02T02:38:33.490Z,5.98
2019-03-02T02:39:35.111Z,5.97
2019-03-02T02:40:33.414Z,5.97
2019-03-02T02:41:33.404Z,6.02
2019-03-02T02:42:33.376Z,5.95
2019-03-02T02:43:33.377Z,5.98
2019-03-02T02:44:37.554Z,5.94
2019-03-02T02:45:33.321Z,5.90
2019-03-02T02:46:34.906Z,5.88
2019-03-02T02:47:33.289Z,5.99
2019-03-02T02:48:33.306Z,5.97
2019-03-02T02:49:33.281Z,5.95
2019-03-02T02:50:33.232Z,5.97
2019-03-02T02:51:33.217Z,5.98
2019-03-02T02:52:33.218Z,5.95
2019-03-02T02:53:33.173Z,5.99
2019-03-02T02:54:33.181Z,5.95
2019-03-02T02:55:36.033Z,5.95
2019-03-02T02:56:34.727Z,5.97
2019-03-02T02:57:33.545Z,6.01
2019-03-02T02:58:33.111Z,5.99
2019-03-02T02:59:33.933Z,5.92
2019-03-02T03:00:35.639Z,5.99
2019-03-02T03:01:34.756Z,5.95
2019-03-02T03:02:33.029Z,5.97
2019-03-02T03:03:32.981Z,6.05
2019-03-02T03:04:36.843Z,5.99
2019-03-02T03:05:32.975Z,6.07
2019-03-02T03:06:34.186Z,6.02
2019-03-02T03:07:32.911Z,5.98
2019-03-02T03:08:33.166Z,5.99
2019-03-02T03:09:32.893Z,6.02
2019-03-02T03:10:32.864Z,6.02
2019-03-02T03:11:32.838Z,6.06
2019-03-02T03:12:32.819Z,5.98
2019-03-02T03:13:35.964Z,6.10
2019-03-02T03:14:32.791Z,6.10
2019-03-02T03:15:36.986Z,6.06
2019-03-02T03:16:32.768Z,6.10
2019-03-02T03:17:33.848Z,6.07
2019-03-02T03:18:32.728Z,6.06
2019-03-02T03:19:32.695Z,6.12
2019-03-02T03:20:32.676Z,6.10
2019-03-02T03:21:32.680Z,6.05
2019-03-02T03:22:32.651Z,6.01
2019-03-02T03:23:32.614Z,6.07
2019-03-02T03:24:39.977Z,6.01
2019-03-02T03:25:32.602Z,5.99
2019-03-02T03:26:35.235Z,6.01
2019-03-02T03:27:32.578Z,6.01
2019-03-02T03:28:32.658Z,6.01
2019-03-02T03:29:32.503Z,6.02
2019-03-02T03:30:36.063Z,5.94
2019-03-02T03:31:32.495Z,5.92
2019-03-02T03:32:32.456Z,5.95
2019-03-02T03:33:42.027Z,5.94
2019-03-02T03:34:32.640Z,6.02
2019-03-02T03:35:32.390Z,5.99
2019-03-02T03:36:34.028Z,5.95
2019-03-02T03:37:32.356Z,6.01
2019-03-02T03:38:32.358Z,5.97
2019-03-02T03:39:32.335Z,5.95
2019-03-02T03:40:32.323Z,5.97
2019-03-02T03:41:32.279Z,5.98
2019-03-02T03:42:32.259Z,5.99
2019-03-02T03:43:32.273Z,5.97
2019-03-02T03:44:32.229Z,5.92
2019-03-02T03:45:32.208Z,5.95
2019-03-02T03:46:32.201Z,5.92
2019-03-02T03:47:33.999Z,5.88
2019-03-02T03:48:32.173Z,5.97
2019-03-02T03:49:34.396Z,5.94
2019-03-02T03:50:32.135Z,5.87
2019-03-02T03:51:32.208Z,5.92
2019-03-02T03:52:32.071Z,5.83
2019-03-02T03:53:32.213Z,5.97
2019-03-02T03:54:32.061Z,5.95
2019-03-02T03:55:32.023Z,5.94
2019-03-02T03:56:32.002Z,5.88
2019-03-02T03:57:31.987Z,5.92
2019-03-02T03:58:35.210Z,5.94
2019-03-02T03:59:31.969Z,5.91
2019-03-02T04:00:34.120Z,5.92
2019-03-02T04:01:31.910Z,5.90
2019-03-02T04:02:35.454Z,5.94
2019-03-02T04:03:31.874Z,5.87
2019-03-02T04:04:31.857Z,5.83
2019-03-02T04:05:31.838Z,5.90
2019-03-02T04:06:31.815Z,5.84
2019-03-02T04:07:31.798Z,5.88
2019-03-02T04:08:31.785Z,5.84
2019-03-02T04:09:31.766Z,5.87
2019-03-02T04:10:31.741Z,5.90
2019-03-02T04:11:31.748Z,5.90
2019-03-02T04:12:31.716Z,5.88
2019-03-02T04:13:31.692Z,5.88
2019-03-02T04:14:31.669Z,5.88
2019-03-02T04:15:40.924Z,5.87
2019-03-02T04:16:31.637Z,5.83
2019-03-02T04:17:34.269Z,5.88
2019-03-02T04:18:31.612Z,5.88
2019-03-02T04:19:34.203Z,5.83
2019-03-02T04:20:31.589Z,5.84
2019-03-02T04:21:31.539Z,5.87
2019-03-02T04:22:31.522Z,5.84
2019-03-02T04:23:31.500Z,5.88
2019-03-02T04:24:34.978Z,5.80
2019-03-02T04:25:31.470Z,5.80
2019-03-02T04:26:36.718Z,5.81
2019-03-02T04:27:31.456Z,5.84
2019-03-02T04:28:32.421Z,5.81
2019-03-02T04:29:31.406Z,5.77
2019-03-02T04:30:32.823Z,5.81
2019-03-02T04:31:31.353Z,5.80
2019-03-02T04:32:31.347Z,5.79
2019-03-02T04:33:31.334Z,5.80
2019-03-02T04:34:31.300Z,5.73
2019-03-02T04:35:33.836Z,5.79
2019-03-02T04:36:31.270Z,5.80
2019-03-02T04:37:31.244Z,5.77
2019-03-02T04:38:33.555Z,5.74
2019-03-02T04:39:31.227Z,5.80
2019-03-02T04:40:31.211Z,5.80
2019-03-02T04:41:31.207Z,5.77
2019-03-02T04:42:31.178Z,5.79
2019-03-02T04:43:31.136Z,5.74
2019-03-02T04:44:31.152Z,5.79
2019-03-02T04:45:31.099Z,5.80
2019-03-02T04:46:31.099Z,5.77
2019-03-02T04:47:31.088Z,5.73
2019-03-02T04:48:31.045Z,5.77
2019-03-02T04:49:31.023Z,5.69
2019-03-02T04:50:31.009Z,5.76
2019-03-02T04:51:30.985Z,5.74
2019-03-02T04:52:30.967Z,5.77
2019-03-02T04:53:30.945Z,5.76
2019-03-02T04:54:30.929Z,5.79
2019-03-02T04:55:30.931Z,5.74
2019-03-02T04:56:30.903Z,5.74
2019-03-02T04:57:33.039Z,5.77
2019-03-02T04:58:30.887Z,5.72
2019-03-02T04:59:30.839Z,5.72
2019-03-02T05:00:31.971Z,5.70
2019-03-02T05:01:30.795Z,5.69
2019-03-02T05:02:30.783Z,5.72
2019-03-02T05:03:30.764Z,5.72
2019-03-02T05:04:32.354Z,5.76
2019-03-02T05:05:30.735Z,5.72
2019-03-02T05:06:30.707Z,5.69
2019-03-02T05:07:30.992Z,5.70
2019-03-02T05:08:30.704Z,5.73
2019-03-02T05:09:30.647Z,5.72
2019-03-02T05:10:30.634Z,5.74
2019-03-02T05:11:30.633Z,5.76
2019-03-02T05:12:30.621Z,5.77
2019-03-02T05:13:30.595Z,5.76
2019-03-02T05:14:30.556Z,5.74
2019-03-02T05:15:30.552Z,5.79
2019-03-02T05:16:30.542Z,5.72
2019-03-02T05:17:30.496Z,5.72
2019-03-02T05:18:30.493Z,5.67
2019-03-02T05:19:30.461Z,5.76
2019-03-02T05:20:32.552Z,5.74
2019-03-02T05:21:30.442Z,5.79
2019-03-02T05:22:30.408Z,5.70
2019-03-02T05:23:30.666Z,5.74
2019-03-02T05:24:30.377Z,5.79
2019-03-02T05:25:30.352Z,5.74
2019-03-02T05:26:30.335Z,5.72
2019-03-02T05:27:31.965Z,5.70
2019-03-02T05:28:30.292Z,5.76
2019-03-02T05:29:30.279Z,5.72
2019-03-02T05:30:30.547Z,5.67
2019-03-02T05:31:30.242Z,5.74
2019-03-02T05:32:30.218Z,5.65
2019-03-02T05:33:30.201Z,5.69
2019-03-02T05:34:30.188Z,5.62
2019-03-02T05:35:30.174Z,5.58
2019-03-02T05:36:30.194Z,5.54
2019-03-02T05:37:30.161Z,5.69
2019-03-02T05:38:30.136Z,5.61
2019-03-02T05:39:30.142Z,5.51
2019-03-02T05:40:31.517Z,5.55
2019-03-02T05:41:30.091Z,5.55
2019-03-02T05:42:30.037Z,5.51
2019-03-02T05:43:30.097Z,5.40
2019-03-02T05:44:29.992Z,5.54
2019-03-02T05:45:30.038Z,5.54
2019-03-02T05:46:29.978Z,5.54
2019-03-02T05:47:30.488Z,5.52
2019-03-02T05:48:29.921Z,5.55
2019-03-02T05:49:30.000Z,5.44
2019-03-02T05:50:30.229Z,5.41
2019-03-02T05:51:29.896Z,5.55
2019-03-02T05:52:29.842Z,5.52
2019-03-02T05:53:30.316Z,5.59
2019-03-02T05:54:29.827Z,5.46
2019-03-02T05:55:29.786Z,5.47
2019-03-02T05:56:30.027Z,5.46
2019-03-02T05:57:29.805Z,5.52
2019-03-02T05:58:29.741Z,5.62
2019-03-02T05:59:29.715Z,5.55
2019-03-02T06:00:29.694Z,5.44
2019-03-02T06:01:29.676Z,5.52
2019-03-02T06:02:29.657Z,5.46
2019-03-02T06:03:29.669Z,5.51
2019-03-02T06:04:29.623Z,5.54
2019-03-02T06:05:29.601Z,5.47
2019-03-02T06:06:29.588Z,5.52
2019-03-02T06:07:29.564Z,5.47
2019-03-02T06:08:32.128Z,5.47
2019-03-02T06:09:29.533Z,5.49
2019-03-02T06:10:29.516Z,5.55
2019-03-02T06:11:29.487Z,5.43
2019-03-02T06:12:29.491Z,5.55
2019-03-02T06:13:29.794Z,5.43
2019-03-02T06:14:30.526Z,5.43
2019-03-02T06:15:29.412Z,5.51
2019-03-02T06:16:29.397Z,5.38
2019-03-02T06:17:29.847Z,5.40
2019-03-02T06:18:29.387Z,5.43
2019-03-02T06:19:29.366Z,5.43
2019-03-02T06:20:32.498Z,5.43
2019-03-02T06:21:29.306Z,5.51
2019-03-02T06:22:29.293Z,5.51
2019-03-02T06:23:29.973Z,5.58
2019-03-02T06:24:29.242Z,5.44
2019-03-02T06:25:29.228Z,5.56
2019-03-02T06:26:31.711Z,5.55
2019-03-02T06:27:29.197Z,5.49
2019-03-02T06:28:29.174Z,5.51
2019-03-02T06:29:32.520Z,5.61
2019-03-02T06:30:29.153Z,5.49
2019-03-02T06:31:29.129Z,5.51
2019-03-02T06:32:30.197Z,5.54
2019-03-02T06:33:29.092Z,5.56
2019-03-02T06:34:29.053Z,5.56
2019-03-02T06:35:32.780Z,5.64
2019-03-02T06:36:29.029Z,5.64
2019-03-02T06:37:29.016Z,5.69
2019-03-02T06:38:32.060Z,5.61
2019-03-02T06:39:28.993Z,5.69
2019-03-02T06:40:28.941Z,5.70
2019-03-02T06:41:29.792Z,5.69
2019-03-02T06:42:28.916Z,5.73
2019-03-02T06:43:28.890Z,5.72
2019-03-02T06:44:30.784Z,5.73
2019-03-02T06:45:28.855Z,5.77
2019-03-02T06:46:28.870Z,5.73
2019-03-02T06:47:29.976Z,5.72
2019-03-02T06:48:28.811Z,5.69
2019-03-02T06:49:28.811Z,5.77
2019-03-02T06:50:31.798Z,5.73
2019-03-02T06:51:28.743Z,5.77
2019-03-02T06:52:28.718Z,5.74
2019-03-02T06:53:28.701Z,5.83
2019-03-02T06:54:28.692Z,5.72
2019-03-02T06:55:28.681Z,5.79
2019-03-02T06:56:28.642Z,5.80
2019-03-02T06:57:28.631Z,5.77
2019-03-02T06:58:29.489Z,5.80
2019-03-02T06:59:28.608Z,5.76
2019-03-02T07:00:28.568Z,5.80
2019-03-02T07:01:28.565Z,5.74
2019-03-02T07:02:31.678Z,5.84
2019-03-02T07:03:28.511Z,5.84
2019-03-02T07:04:28.502Z,5.88
2019-03-02T07:05:29.701Z,5.84
2019-03-02T07:06:28.455Z,5.90
2019-03-02T07:07:28.437Z,5.92
2019-03-02T07:08:29.538Z,5.95
2019-03-02T07:09:28.424Z,5.84
2019-03-02T07:10:28.391Z,5.91
2019-03-02T07:11:29.920Z,5.87
2019-03-02T07:12:28.343Z,5.98
2019-03-02T07:13:28.342Z,5.94
2019-03-02T07:14:28.861Z,5.90
2019-03-02T07:15:28.315Z,5.97
2019-03-02T07:16:28.274Z,5.95
2019-03-02T07:17:30.904Z,6.01
2019-03-02T07:18:28.257Z,6.02
2019-03-02T07:19:28.211Z,6.06
2019-03-02T07:20:28.288Z,5.90
2019-03-02T07:21:28.225Z,5.94
2019-03-02T07:22:28.156Z,5.98
2019-03-02T07:23:28.787Z,6.07
2019-03-02T07:24:29.453Z,6.05
2019-03-02T07:25:28.228Z,6.05
2019-03-02T07:26:35.420Z,6.05
2019-03-02T07:28:21.977Z,6.09
2019-03-02T07:29:21.962Z,6.06
2019-03-02T07:31:14.805Z,6.16
2019-03-02T07:32:14.744Z,6.16
2019-03-02T07:33:14.826Z,6.12
2019-03-02T07:34:14.705Z,6.16
2019-03-02T07:35:15.816Z,6.20
2019-03-02T07:36:14.666Z,6.28
2019-03-02T07:37:14.642Z,6.25
2019-03-02T07:38:16.987Z,6.26
2019-03-02T07:39:14.642Z,6.31
2019-03-02T07:40:14.590Z,6.25
2019-03-02T07:41:14.573Z,6.36
2019-03-02T07:42:14.556Z,6.25
2019-03-02T07:43:14.536Z,6.32
2019-03-02T07:44:14.531Z,6.39
2019-03-02T07:45:14.511Z,6.31
2019-03-02T07:46:14.502Z,6.41
2019-03-02T07:47:14.471Z,6.38
2019-03-02T07:48:14.449Z,6.28
2019-03-02T07:49:14.429Z,6.41
2019-03-02T07:50:14.410Z,6.29
2019-03-02T07:51:14.397Z,6.35
2019-03-02T07:52:17.204Z,6.25
2019-03-02T07:53:14.353Z,6.22
2019-03-02T07:54:14.332Z,6.32
2019-03-02T07:55:14.669Z,6.29
2019-03-02T07:56:14.318Z,6.25
2019-03-02T07:57:14.304Z,6.28
2019-03-02T07:58:16.649Z,6.19
2019-03-02T07:59:14.248Z,6.15
2019-03-02T08:00:14.223Z,6.26
2019-03-02T08:01:16.745Z,6.20
2019-03-02T08:02:14.184Z,6.16
2019-03-02T08:03:14.183Z,6.25
2019-03-02T08:04:14.147Z,6.19
2019-03-02T08:05:14.681Z,6.20
2019-03-02T08:06:14.111Z,6.26
2019-03-02T08:07:14.118Z,6.26
2019-03-02T08:08:14.998Z,6.26
2019-03-02T08:09:14.062Z,6.22
2019-03-02T08:10:14.037Z,6.26
2019-03-02T08:11:14.344Z,6.36
2019-03-02T08:12:14.014Z,6.25
2019-03-02T08:13:13.988Z,6.28
2019-03-02T08:14:16.031Z,6.38
2019-03-02T08:15:24.273Z,6.43
2019-03-02T08:17:09.875Z,6.46
2019-03-02T08:18:06.809Z,6.46
2019-03-02T08:19:59.747Z,6.39
2019-03-02T08:21:00.812Z,6.53
2019-03-02T08:22:52.592Z,6.38
2019-03-02T08:23:52.525Z,6.41
2019-03-02T08:25:45.837Z,6.52
2019-03-02T08:26:45.361Z,6.53
2019-03-02T08:28:38.284Z,6.60
2019-03-02T08:29:38.211Z,6.50
2019-03-02T08:31:31.121Z,6.54
2019-03-02T08:32:31.075Z,6.56
2019-03-02T08:34:23.852Z,6.50
2019-03-02T08:35:23.967Z,6.64
2019-03-02T08:36:23.863Z,6.62
2019-03-02T08:37:26.704Z,6.67
2019-03-02T08:38:23.791Z,6.65
2019-03-02T08:39:23.746Z,6.65
2019-03-02T08:40:24.484Z,6.64
2019-03-02T08:41:24.423Z,6.67
2019-03-02T08:42:23.695Z,6.68
2019-03-02T08:43:23.676Z,6.65
2019-03-02T08:44:23.657Z,6.62
2019-03-02T08:45:23.642Z,6.67
2019-03-02T08:48:03.933Z,6.75
2019-03-02T08:49:06.387Z,6.68
2019-03-02T08:50:56.769Z,6.72
2019-03-02T08:51:56.674Z,6.80
2019-03-02T08:53:49.533Z,6.77
2019-03-02T08:54:49.480Z,6.74
2019-03-02T08:55:49.469Z,6.78
2019-03-02T08:56:49.457Z,6.77
2019-03-02T08:57:49.442Z,6.83
2019-03-02T08:58:49.418Z,6.87
2019-03-02T08:59:49.395Z,6.85
2019-03-02T09:00:51.482Z,6.82
2019-03-02T09:01:51.435Z,6.83
2019-03-02T09:02:49.345Z,6.85
2019-03-02T09:03:49.323Z,6.93
2019-03-02T09:04:50.818Z,6.95
2019-03-02T09:05:51.677Z,6.95
2019-03-02T09:06:49.269Z,7.01
2019-03-02T09:07:49.250Z,7.00
2019-03-02T09:08:49.237Z,7.05
2019-03-02T09:09:49.234Z,7.11
2019-03-02T09:10:50.278Z,7.13
2019-03-02T09:11:49.183Z,7.21
2019-03-02T09:12:49.160Z,7.22
2019-03-02T09:13:49.153Z,7.26
2019-03-02T09:14:50.044Z,7.40
2019-03-02T09:15:49.105Z,7.40
2019-03-02T09:16:49.088Z,7.48
2019-03-02T09:17:50.153Z,7.41
2019-03-02T09:18:49.063Z,7.40
2019-03-02T09:19:49.037Z,7.41
2019-03-02T09:20:49.022Z,7.53
2019-03-02T09:21:49.138Z,7.46
2019-03-02T09:22:48.992Z,7.48
2019-03-02T09:23:48.958Z,7.62
2019-03-02T09:24:49.216Z,7.66
2019-03-02T09:25:48.924Z,7.58
2019-03-02T09:26:48.937Z,7.62
2019-03-02T09:27:48.891Z,7.55
2019-03-02T09:28:52.071Z,7.58
2019-03-02T09:29:48.857Z,7.44
2019-03-02T09:30:48.839Z,7.43
2019-03-02T09:31:48.818Z,7.41
2019-03-02T09:32:50.901Z,7.44
2019-03-02T09:33:48.778Z,7.39
2019-03-02T09:34:49.558Z,7.40
2019-03-02T09:35:54.539Z,7.28
2019-03-02T09:36:48.736Z,7.33
2019-03-02T09:37:48.708Z,7.26
2019-03-02T09:38:50.079Z,7.22
2019-03-02T09:39:48.671Z,7.23
2019-03-02T09:40:49.133Z,7.26
2019-03-02T09:41:48.650Z,7.19
2019-03-02T09:42:48.614Z,7.21
2019-03-02T09:43:48.674Z,7.18
2019-03-02T09:44:50.004Z,7.18
2019-03-02T09:45:49.223Z,7.21
2019-03-02T09:46:48.544Z,7.11
2019-03-02T09:47:51.462Z,7.08
2019-03-02T09:48:48.552Z,7.08
2019-03-02T09:49:48.493Z,7.01
2019-03-02T09:50:48.469Z,7.03
2019-03-02T09:51:49.223Z,7.05
2019-03-02T09:52:48.479Z,7.13
2019-03-02T09:53:48.435Z,7.18
2019-03-02T09:54:48.396Z,7.13
2019-03-02T09:55:52.058Z,7.14
2019-03-02T09:56:48.370Z,7.05
2019-03-02T09:57:48.562Z,7.18
2019-03-02T09:58:48.337Z,7.19
2019-03-02T09:59:48.305Z,7.14
2019-03-02T10:00:48.290Z,7.18
2019-03-02T10:01:48.274Z,7.23
2019-03-02T10:02:50.156Z,7.25
2019-03-02T10:03:48.242Z,7.26
2019-03-02T10:04:48.220Z,7.21
2019-03-02T10:05:49.878Z,7.25
2019-03-02T10:06:50.330Z,7.21
2019-03-02T10:07:48.164Z,7.14
2019-03-02T10:08:48.878Z,7.21
2019-03-02T10:09:48.150Z,7.11
2019-03-02T10:10:48.118Z,7.05
2019-03-02T10:11:48.109Z,7.01
2019-03-02T10:12:51.380Z,7.07
2019-03-02T10:13:48.051Z,7.03
2019-03-02T10:14:48.036Z,7.07
2019-03-02T10:15:48.020Z,6.97
2019-03-02T10:16:48.001Z,7.10
2019-03-02T10:17:47.999Z,7.00
2019-03-02T10:18:49.680Z,6.96
2019-03-02T10:19:47.960Z,7.10
2019-03-02T10:20:47.948Z,7.01
2019-03-02T10:21:48.802Z,7.00
2019-03-02T10:22:47.894Z,6.96
2019-03-02T10:23:47.878Z,6.97
2019-03-02T10:24:49.800Z,7.03
2019-03-02T10:25:47.839Z,6.86
2019-03-02T10:26:47.817Z,6.96
2019-03-02T10:27:47.862Z,7.04
2019-03-02T10:28:47.802Z,7.07
2019-03-02T10:29:48.200Z,6.93
2019-03-02T10:30:47.740Z,7.03
2019-03-02T10:31:47.746Z,7.04
2019-03-02T10:32:47.703Z,7.14
2019-03-02T10:33:47.688Z,7.10
2019-03-02T10:34:47.675Z,7.18
2019-03-02T10:35:49.640Z,7.10
2019-03-02T10:36:47.647Z,7.10
2019-03-02T10:37:47.620Z,7.21
2019-03-02T10:38:47.600Z,7.14
2019-03-02T10:39:47.586Z,7.13
2019-03-02T10:40:47.558Z,7.18
2019-03-02T10:41:47.549Z,7.22
2019-03-02T10:42:47.524Z,7.08
2019-03-02T10:43:47.499Z,7.22
2019-03-02T10:44:47.496Z,7.21
2019-03-02T10:45:47.469Z,7.29
2019-03-02T10:46:47.448Z,7.28
2019-03-02T10:47:47.444Z,7.25
2019-03-02T10:48:47.423Z,7.32
2019-03-02T10:49:48.438Z,7.33
2019-03-02T10:50:47.384Z,7.43
2019-03-02T10:51:47.352Z,7.43
2019-03-02T10:52:48.982Z,7.41
2019-03-02T10:53:47.323Z,7.50
2019-03-02T10:54:47.307Z,7.51
2019-03-02T10:55:48.246Z,7.58
2019-03-02T10:56:47.264Z,7.59
2019-03-02T10:57:47.248Z,7.72
2019-03-02T10:58:47.239Z,7.67
2019-03-02T10:59:47.930Z,7.67
2019-03-02T11:00:47.195Z,7.75
2019-03-02T11:01:47.182Z,7.84
2019-03-02T11:02:47.160Z,7.87
2019-03-02T11:03:47.139Z,7.88
2019-03-02T11:04:47.125Z,7.95
2019-03-02T11:05:47.121Z,7.91
2019-03-02T11:06:47.087Z,7.96
2019-03-02T11:07:48.909Z,7.98
2019-03-02T11:08:47.063Z,7.99
2019-03-02T11:09:47.050Z,8.05
2019-03-02T11:10:48.729Z,7.96
2019-03-02T11:11:47.002Z,7.95
2019-03-02T11:12:46.981Z,7.98
2019-03-02T11:13:46.965Z,7.98
2019-03-02T11:14:46.947Z,7.91
2019-03-02T11:15:46.934Z,7.90
2019-03-02T11:16:47.776Z,8.02
2019-03-02T11:17:46.926Z,7.96
2019-03-02T11:18:46.875Z,7.93
2019-03-02T11:19:47.405Z,7.98
2019-03-02T11:20:46.845Z,7.93
2019-03-02T11:21:46.820Z,8.06
2019-03-02T11:22:46.808Z,8.08
2019-03-02T11:23:46.784Z,8.09
2019-03-02T11:24:46.783Z,8.16
2019-03-02T11:25:46.749Z,8.09
2019-03-02T11:26:46.726Z,8.16
2019-03-02T11:27:49.645Z,8.23
2019-03-02T11:28:46.692Z,8.34
2019-03-02T11:29:51.100Z,8.28
2019-03-02T11:30:46.663Z,8.36
2019-03-02T11:31:46.640Z,8.35
2019-03-02T11:32:46.634Z,8.42
2019-03-02T11:33:46.815Z,8.53
2019-03-02T11:34:46.600Z,8.61
2019-03-02T11:35:46.573Z,8.53
2019-03-02T11:36:49.354Z,8.56
2019-03-02T11:37:46.555Z,8.66
2019-03-02T11:38:46.545Z,8.75
2019-03-02T11:39:49.978Z,8.75
2019-03-02T11:40:46.507Z,8.72
2019-03-02T11:41:46.469Z,8.74
2019-03-02T11:42:46.453Z,8.72
2019-03-02T11:43:48.535Z,8.72
2019-03-02T11:44:46.424Z,8.64
2019-03-02T11:45:46.425Z,8.66
2019-03-02T11:46:46.390Z,8.69
2019-03-02T11:47:46.367Z,8.71
2019-03-02T11:48:48.415Z,8.68
2019-03-02T11:49:46.338Z,8.64
2019-03-02T11:50:46.972Z,8.59
2019-03-02T11:51:46.300Z,8.59
2019-03-02T11:52:46.276Z,8.53
2019-03-02T11:53:48.795Z,8.46
2019-03-02T11:54:46.250Z,8.56
2019-03-02T11:55:46.255Z,8.50
2019-03-02T11:56:46.797Z,8.44
2019-03-02T11:57:46.184Z,8.49
2019-03-02T11:58:46.176Z,8.49
2019-03-02T11:59:46.451Z,8.45
2019-03-02T12:00:46.153Z,8.42
2019-03-02T12:01:46.123Z,8.44
2019-03-02T12:02:46.105Z,8.50
2019-03-02T12:03:46.085Z,8.56
2019-03-02T12:04:49.032Z,8.50
2019-03-02T12:05:46.056Z,8.53
2019-03-02T12:06:46.035Z,8.53
2019-03-02T12:07:46.457Z,8.54
2019-03-02T12:08:45.994Z,8.56
2019-03-02T12:09:45.998Z,8.50
2019-03-02T12:10:45.969Z,8.57
2019-03-02T12:11:46.841Z,8.66
2019-03-02T12:12:45.948Z,8.63
2019-03-02T12:13:45.967Z,8.77
2019-03-02T12:14:46.226Z,8.72
2019-03-02T12:15:49.150Z,8.77
2019-03-02T12:16:45.861Z,8.81
2019-03-02T12:17:45.849Z,8.81
2019-03-02T12:18:45.858Z,8.84
2019-03-02T12:19:45.806Z,8.81
2019-03-02T12:20:46.738Z,8.81
2019-03-02T12:21:45.776Z,8.92
2019-03-02T12:22:45.770Z,8.82
2019-03-02T12:23:45.750Z,8.84
2019-03-02T12:24:45.720Z,8.89
2019-03-02T12:25:45.702Z,8.92
2019-03-02T12:26:46.407Z,8.90
2019-03-02T12:27:45.664Z,8.97
2019-03-02T12:28:45.649Z,8.95
2019-03-02T12:29:46.071Z,9.00
2019-03-02T12:30:45.625Z,9.09
2019-03-02T12:31:45.599Z,9.05
2019-03-02T12:32:45.839Z,9.11
2019-03-02T12:33:45.570Z,9.16
2019-03-02T12:34:45.546Z,9.19
2019-03-02T12:35:45.543Z,9.27
2019-03-02T12:36:49.094Z,9.33
2019-03-02T12:37:45.501Z,9.27
2019-03-02T12:38:48.014Z,9.34
2019-03-02T12:39:45.458Z,9.31
2019-03-02T12:40:45.459Z,9.36
2019-03-02T12:41:48.934Z,9.34
2019-03-02T12:42:45.408Z,9.56
2019-03-02T12:43:45.392Z,9.55
2019-03-02T12:44:45.373Z,9.55
2019-03-02T12:45:45.359Z,9.59
2019-03-02T12:46:48.018Z,9.66
2019-03-02T12:47:45.328Z,9.64
2019-03-02T12:48:45.308Z,9.66
2019-03-02T12:49:47.081Z,9.66
2019-03-02T12:50:45.286Z,9.72
2019-03-02T12:51:45.267Z,9.80
2019-03-02T12:52:48.223Z,9.73
2019-03-02T12:53:45.227Z,9.73
2019-03-02T12:54:45.225Z,9.74
2019-03-02T12:55:45.184Z,9.73
2019-03-02T12:56:45.177Z,9.76
2019-03-02T12:57:45.542Z,9.80
2019-03-02T12:58:45.144Z,9.70
2019-03-02T12:59:45.123Z,9.72
2019-03-02T13:00:45.103Z,9.74
2019-03-02T13:01:45.092Z,9.77
2019-03-02T13:02:47.961Z,9.90
2019-03-02T13:03:45.063Z,9.91
2019-03-02T13:04:45.346Z,10.10
2019-03-02T13:05:45.025Z,10.18
2019-03-02T13:06:46.252Z,10.31
2019-03-02T13:07:47.036Z,10.49
2019-03-02T13:08:46.037Z,10.57
2019-03-02T13:09:44.979Z,10.69
2019-03-02T13:10:44.956Z,10.82
2019-03-02T13:11:44.930Z,10.86
2019-03-02T13:12:45.917Z,11.00
2019-03-02T13:13:44.896Z,11.10
2019-03-02T13:14:44.890Z,11.18
2019-03-02T13:15:45.388Z,11.19
2019-03-02T13:16:45.636Z,11.34
2019-03-02T13:17:44.856Z,11.35
2019-03-02T13:18:47.000Z,11.41
2019-03-02T13:19:44.817Z,11.51
2019-03-02T13:20:44.786Z,11.44
2019-03-02T13:21:47.971Z,11.49
2019-03-02T13:22:44.751Z,11.40
2019-03-02T13:23:44.751Z,11.43
2019-03-02T13:24:44.728Z,11.35
2019-03-02T13:25:44.714Z,11.51
2019-03-02T13:26:45.700Z,11.37
2019-03-02T13:27:44.680Z,11.53
2019-03-02T13:28:46.272Z,11.37
2019-03-02T13:29:44.651Z,11.43